Woodsetts, United Kingdom
Current Conditions -  °F | °C
As of 3:20 PM on Thursday 23 Oct 2014 (Local Time) from EGCN Reporting Station
Overcast Overcast  
Wind Chill: 61°   Ceiling: 1700
Heat Index: 61°   Visibility: 6mi
Dew Point: 54°   Wind: 16mph
Humidity: 77%   Direction: 190°S
Pressure: 29.94"   Gusts: NA
Location:  53.35°N, 1.17°W
Report Text: EGCN 231420Z 19014KT 9999 BKN017 BKN022 OVC028 16/12 Q1014
Loading
Personal Weather Stations






























Interactive Weather Map
Tropical Storm Tracking
New forecast layout! Learn more

10-Day Weather Forecast

Advertisements
Track Severe Weather on mobile